createdAt,value
2022-11-24T07:49:21.227Z,3.30
2022-11-24T07:59:24.517Z,3.55
2022-11-24T08:09:26.419Z,4.55
2022-11-24T08:19:29.796Z,3.85
2022-11-24T08:29:31.923Z,4.57
2022-11-24T08:39:35.233Z,5.03
2022-11-24T08:49:37.173Z,6.82
2022-11-24T08:59:40.507Z,5.47
2022-11-24T09:09:42.471Z,4.88
2022-11-24T09:19:46.565Z,7.47
2022-11-24T09:29:48.518Z,5.32
2022-11-24T09:39:51.825Z,6.10
2022-11-24T09:49:59.502Z,5.90
2022-11-24T10:00:11.752Z,6.30
2022-11-24T10:10:24.288Z,5.70
2022-11-24T10:20:41.416Z,6.22
2022-11-24T10:30:43.877Z,6.53
2022-11-24T10:40:57.557Z,8.95
2022-11-24T10:51:12.167Z,8.73
2022-11-24T11:01:28.934Z,6.07
2022-11-24T11:11:31.006Z,6.82
2022-11-24T11:21:37.313Z,6.05
2022-11-24T11:31:39.831Z,6.50
2022-11-24T11:41:48.195Z,6.93
2022-11-24T11:52:12.069Z,8.18
2022-11-24T12:02:41.023Z,6.70
2022-11-24T12:12:55.506Z,7.65
2022-11-24T12:23:06.842Z,7.88
2022-11-24T12:33:29.293Z,5.00
2022-11-24T12:43:35.309Z,4.85
2022-11-24T12:53:38.570Z,6.70
2022-11-24T13:03:51.005Z,6.07
2022-11-24T13:13:59.170Z,6.28
2022-11-24T13:24:04.244Z,5.70
2022-11-24T13:34:44.756Z,7.07
2022-11-24T13:54:59.423Z,6.00
2022-11-24T14:05:03.108Z,5.95
2022-11-24T14:15:22.428Z,6.80
2022-11-24T14:25:29.283Z,7.90
2022-11-24T14:35:33.077Z,6.22
2022-11-24T14:45:36.535Z,4.55
2022-11-24T14:55:38.455Z,4.90
2022-11-24T15:05:56.743Z,5.63
2022-11-24T15:16:03.103Z,6.13
2022-11-24T15:26:30.721Z,4.75
2022-11-24T15:36:33.364Z,4.45
2022-11-24T15:46:36.699Z,4.47
2022-11-24T15:56:39.531Z,8.73
2022-11-24T16:06:42.845Z,5.75
2022-11-24T16:16:44.837Z,3.10
2022-11-24T16:26:48.187Z,1.50
2022-11-24T16:36:50.233Z,1.40
2022-11-24T16:46:53.542Z,2.05
2022-11-24T16:56:55.732Z,1.90
2022-11-24T17:06:59.074Z,0.70
2022-11-24T17:17:01.115Z,1.10
2022-11-24T17:27:04.448Z,2.67
2022-11-24T17:37:06.453Z,3.75
2022-11-24T17:47:09.728Z,3.97
2022-11-24T17:57:11.686Z,5.28
2022-11-24T18:07:15.045Z,3.30
2022-11-24T18:17:16.990Z,5.00
2022-11-24T18:27:45.075Z,7.97
2022-11-24T18:37:47.032Z,4.50
2022-11-24T18:47:51.540Z,5.00
2022-11-24T18:57:54.196Z,4.75
2022-11-24T19:07:57.573Z,5.00
2022-11-24T19:17:59.574Z,7.63
2022-11-24T19:28:03.200Z,5.07
2022-11-24T19:38:05.124Z,7.20
2022-11-24T19:48:08.562Z,6.75
2022-11-24T19:58:10.543Z,5.82
2022-11-24T20:08:13.815Z,4.75
2022-11-24T20:18:15.729Z,7.72
2022-11-24T20:28:19.009Z,7.75
2022-11-24T20:38:20.906Z,8.27
2022-11-24T20:48:24.207Z,4.68
2022-11-24T20:58:26.161Z,6.47
2022-11-24T21:08:32.105Z,7.80
2022-11-24T21:18:34.208Z,6.15
2022-11-24T21:28:37.613Z,6.30
2022-11-24T21:38:39.516Z,5.13
2022-11-24T21:48:42.884Z,4.45
2022-11-24T21:58:45.750Z,8.10
2022-11-24T22:08:49.556Z,6.20
2022-11-24T22:18:51.548Z,5.20
2022-11-24T22:28:55.827Z,4.68
2022-11-24T22:38:59.159Z,5.20
2022-11-24T22:49:02.501Z,6.38
2022-11-24T22:59:04.427Z,4.88
2022-11-24T23:09:07.716Z,4.93
2022-11-24T23:19:10.305Z,4.53
2022-11-24T23:29:13.723Z,4.03
2022-11-24T23:39:15.703Z,6.60
2022-11-24T23:49:18.993Z,4.78
2022-11-24T23:59:20.889Z,3.85
